sensor_id;sensor_type;location;lat;lon;timestamp;P1;durP1;ratioP1;P2;durP2;ratioP2
16878;SDS011;8556;52.218;9.884;2022-12-29T00:00:12;1.80;;;1.70;;
16878;SDS011;8556;52.218;9.884;2022-12-29T00:02:40;1.87;;;1.63;;
16878;SDS011;8556;52.218;9.884;2022-12-29T00:05:07;1.97;;;1.70;;
16878;SDS011;8556;52.218;9.884;2022-12-29T00:07:34;1.93;;;1.73;;
16878;SDS011;8556;52.218;9.884;2022-12-29T00:10:00;3.57;;;1.90;;
16878;SDS011;8556;52.218;9.884;2022-12-29T00:12:27;3.53;;;1.93;;
16878;SDS011;8556;52.218;9.884;2022-12-29T00:15:15;1.70;;;1.60;;
16878;SDS011;8556;52.218;9.884;2022-12-29T00:17:59;2.83;;;1.70;;
16878;SDS011;8556;52.218;9.884;2022-12-29T00:20:26;3.07;;;1.63;;
16878;SDS011;8556;52.218;9.884;2022-12-29T00:23:22;3.33;;;2.03;;
16878;SDS011;8556;52.218;9.884;2022-12-29T00:26:09;2.43;;;1.90;;
16878;SDS011;8556;52.218;9.884;2022-12-29T00:28:57;1.87;;;1.50;;
16878;SDS011;8556;52.218;9.884;2022-12-29T00:31:43;3.13;;;1.67;;
16878;SDS011;8556;52.218;9.884;2022-12-29T00:34:27;2.60;;;1.70;;
16878;SDS011;8556;52.218;9.884;2022-12-29T00:37:11;2.77;;;1.40;;
16878;SDS011;8556;52.218;9.884;2022-12-29T00:39:38;1.60;;;1.50;;
16878;SDS011;8556;52.218;9.884;2022-12-29T00:42:22;2.50;;;1.50;;
16878;SDS011;8556;52.218;9.884;2022-12-29T00:45:06;1.80;;;1.30;;
16878;SDS011;8556;52.218;9.884;2022-12-29T00:47:35;1.30;;;1.20;;
16878;SDS011;8556;52.218;9.884;2022-12-29T00:50:02;2.83;;;1.80;;
16878;SDS011;8556;52.218;9.884;2022-12-29T00:52:28;1.77;;;1.20;;
16878;SDS011;8556;52.218;9.884;2022-12-29T00:54:55;2.43;;;1.50;;
16878;SDS011;8556;52.218;9.884;2022-12-29T00:57:21;1.40;;;1.20;;
16878;SDS011;8556;52.218;9.884;2022-12-29T00:59:48;1.67;;;1.20;;
16878;SDS011;8556;52.218;9.884;2022-12-29T01:02:15;1.53;;;1.43;;
16878;SDS011;8556;52.218;9.884;2022-12-29T01:04:43;1.37;;;1.23;;
16878;SDS011;8556;52.218;9.884;2022-12-29T01:07:10;2.47;;;1.63;;
16878;SDS011;8556;52.218;9.884;2022-12-29T01:09:37;2.10;;;1.70;;
16878;SDS011;8556;52.218;9.884;2022-12-29T01:12:21;2.13;;;1.47;;
16878;SDS011;8556;52.218;9.884;2022-12-29T01:15:02;1.20;;;1.10;;
16878;SDS011;8556;52.218;9.884;2022-12-29T01:17:29;2.80;;;1.50;;
16878;SDS011;8556;52.218;9.884;2022-12-29T01:19:57;1.70;;;1.60;;
16878;SDS011;8556;52.218;9.884;2022-12-29T01:22:24;1.60;;;1.50;;
16878;SDS011;8556;52.218;9.884;2022-12-29T01:24:51;1.50;;;1.40;;
16878;SDS011;8556;52.218;9.884;2022-12-29T01:27:17;2.10;;;1.77;;
16878;SDS011;8556;52.218;9.884;2022-12-29T01:29:44;3.20;;;1.60;;
16878;SDS011;8556;52.218;9.884;2022-12-29T01:32:11;2.13;;;1.50;;
16878;SDS011;8556;52.218;9.884;2022-12-29T01:34:38;2.33;;;1.40;;
16878;SDS011;8556;52.218;9.884;2022-12-29T01:37:06;2.17;;;1.63;;
16878;SDS011;8556;52.218;9.884;2022-12-29T01:39:32;5.53;;;1.80;;
16878;SDS011;8556;52.218;9.884;2022-12-29T01:41:59;2.17;;;1.40;;
16878;SDS011;8556;52.218;9.884;2022-12-29T01:44:46;2.57;;;1.90;;
16878;SDS011;8556;52.218;9.884;2022-12-29T01:47:17;1.43;;;1.20;;
16878;SDS011;8556;52.218;9.884;2022-12-29T01:49:48;2.20;;;1.70;;
16878;SDS011;8556;52.218;9.884;2022-12-29T01:52:18;2.50;;;1.50;;
16878;SDS011;8556;52.218;9.884;2022-12-29T01:54:47;1.57;;;1.20;;
16878;SDS011;8556;52.218;9.884;2022-12-29T01:57:17;2.57;;;1.40;;
16878;SDS011;8556;52.218;9.884;2022-12-29T01:59:48;1.30;;;1.20;;
16878;SDS011;8556;52.218;9.884;2022-12-29T02:02:19;1.27;;;1.20;;
16878;SDS011;8556;52.218;9.884;2022-12-29T02:04:46;1.90;;;1.30;;
16878;SDS011;8556;52.218;9.884;2022-12-29T02:07:14;1.10;;;1.00;;
16878;SDS011;8556;52.218;9.884;2022-12-29T02:09:46;1.83;;;1.60;;
16878;SDS011;8556;52.218;9.884;2022-12-29T02:12:14;1.40;;;1.30;;
16878;SDS011;8556;52.218;9.884;2022-12-29T02:14:42;2.53;;;1.20;;
16878;SDS011;8556;52.218;9.884;2022-12-29T02:17:11;2.07;;;1.20;;
16878;SDS011;8556;52.218;9.884;2022-12-29T02:23:00;1.10;;;1.00;;
16878;SDS011;8556;52.218;9.884;2022-12-29T02:25:55;2.53;;;1.73;;
16878;SDS011;8556;52.218;9.884;2022-12-29T02:31:37;4.70;;;1.30;;
16878;SDS011;8556;52.218;9.884;2022-12-29T02:34:10;0.90;;;0.90;;
16878;SDS011;8556;52.218;9.884;2022-12-29T02:36:47;1.47;;;1.10;;
16878;SDS011;8556;52.218;9.884;2022-12-29T02:39:23;1.80;;;1.60;;
16878;SDS011;8556;52.218;9.884;2022-12-29T02:42:01;1.77;;;1.10;;
16878;SDS011;8556;52.218;9.884;2022-12-29T02:44:36;1.60;;;0.90;;
16878;SDS011;8556;52.218;9.884;2022-12-29T02:47:19;1.47;;;0.90;;
16878;SDS011;8556;52.218;9.884;2022-12-29T02:49:51;1.27;;;1.10;;
16878;SDS011;8556;52.218;9.884;2022-12-29T02:52:26;2.40;;;1.30;;
16878;SDS011;8556;52.218;9.884;2022-12-29T02:54:57;1.20;;;1.10;;
16878;SDS011;8556;52.218;9.884;2022-12-29T02:57:31;0.90;;;0.90;;
16878;SDS011;8556;52.218;9.884;2022-12-29T03:00:00;2.40;;;1.23;;
16878;SDS011;8556;52.218;9.884;2022-12-29T03:02:34;1.10;;;1.00;;
16878;SDS011;8556;52.218;9.884;2022-12-29T03:05:21;3.00;;;1.40;;
16878;SDS011;8556;52.218;9.884;2022-12-29T03:08:04;1.57;;;1.20;;
16878;SDS011;8556;52.218;9.884;2022-12-29T03:10:38;1.93;;;1.20;;
16878;SDS011;8556;52.218;9.884;2022-12-29T03:13:12;2.73;;;1.40;;
16878;SDS011;8556;52.218;9.884;2022-12-29T03:16:06;1.30;;;1.20;;
16878;SDS011;8556;52.218;9.884;2022-12-29T03:18:45;1.37;;;1.27;;
16878;SDS011;8556;52.218;9.884;2022-12-29T03:21:17;1.80;;;1.47;;
16878;SDS011;8556;52.218;9.884;2022-12-29T03:24:13;1.60;;;1.50;;
16878;SDS011;8556;52.218;9.884;2022-12-29T03:26:41;1.90;;;1.50;;
16878;SDS011;8556;52.218;9.884;2022-12-29T03:29:09;1.37;;;1.27;;
16878;SDS011;8556;52.218;9.884;2022-12-29T03:31:37;1.63;;;1.53;;
16878;SDS011;8556;52.218;9.884;2022-12-29T03:34:05;1.30;;;1.20;;
16878;SDS011;8556;52.218;9.884;2022-12-29T03:36:36;1.40;;;1.30;;
16878;SDS011;8556;52.218;9.884;2022-12-29T03:39:09;1.57;;;1.10;;
16878;SDS011;8556;52.218;9.884;2022-12-29T03:41:37;1.93;;;1.63;;
16878;SDS011;8556;52.218;9.884;2022-12-29T03:44:09;3.50;;;1.43;;
16878;SDS011;8556;52.218;9.884;2022-12-29T03:46:37;2.33;;;1.30;;
16878;SDS011;8556;52.218;9.884;2022-12-29T03:49:05;1.90;;;1.47;;
16878;SDS011;8556;52.218;9.884;2022-12-29T03:51:32;2.30;;;1.23;;
16878;SDS011;8556;52.218;9.884;2022-12-29T03:53:58;1.87;;;1.43;;
16878;SDS011;8556;52.218;9.884;2022-12-29T03:56:25;1.50;;;1.20;;
16878;SDS011;8556;52.218;9.884;2022-12-29T03:58:52;2.70;;;1.23;;
16878;SDS011;8556;52.218;9.884;2022-12-29T04:01:19;1.40;;;1.30;;
16878;SDS011;8556;52.218;9.884;2022-12-29T04:03:46;1.30;;;1.20;;
16878;SDS011;8556;52.218;9.884;2022-12-29T04:06:14;1.40;;;0.97;;
16878;SDS011;8556;52.218;9.884;2022-12-29T04:08:41;0.70;;;0.70;;
16878;SDS011;8556;52.218;9.884;2022-12-29T04:11:07;1.50;;;1.13;;
16878;SDS011;8556;52.218;9.884;2022-12-29T04:13:34;0.97;;;0.87;;
16878;SDS011;8556;52.218;9.884;2022-12-29T04:16:01;1.50;;;0.87;;
16878;SDS011;8556;52.218;9.884;2022-12-29T04:18:28;1.37;;;1.20;;
16878;SDS011;8556;52.218;9.884;2022-12-29T04:20:54;1.30;;;1.03;;
16878;SDS011;8556;52.218;9.884;2022-12-29T04:23:30;1.40;;;1.30;;
16878;SDS011;8556;52.218;9.884;2022-12-29T04:25:59;2.37;;;1.30;;
16878;SDS011;8556;52.218;9.884;2022-12-29T04:28:26;2.00;;;1.20;;
16878;SDS011;8556;52.218;9.884;2022-12-29T04:30:53;1.00;;;1.00;;
16878;SDS011;8556;52.218;9.884;2022-12-29T04:33:21;2.50;;;1.10;;
16878;SDS011;8556;52.218;9.884;2022-12-29T04:35:48;1.70;;;0.93;;
16878;SDS011;8556;52.218;9.884;2022-12-29T04:38:15;1.33;;;1.17;;
16878;SDS011;8556;52.218;9.884;2022-12-29T04:40:44;1.27;;;0.77;;
16878;SDS011;8556;52.218;9.884;2022-12-29T04:43:11;1.73;;;0.80;;
16878;SDS011;8556;52.218;9.884;2022-12-29T04:45:38;0.77;;;0.77;;
16878;SDS011;8556;52.218;9.884;2022-12-29T04:48:05;0.80;;;0.50;;
16878;SDS011;8556;52.218;9.884;2022-12-29T04:50:32;0.70;;;0.70;;
16878;SDS011;8556;52.218;9.884;2022-12-29T04:52:59;2.07;;;0.77;;
16878;SDS011;8556;52.218;9.884;2022-12-29T04:55:26;0.93;;;0.80;;
16878;SDS011;8556;52.218;9.884;2022-12-29T04:57:54;1.23;;;0.73;;
16878;SDS011;8556;52.218;9.884;2022-12-29T05:00:21;2.27;;;0.93;;
16878;SDS011;8556;52.218;9.884;2022-12-29T05:02:48;0.70;;;0.60;;
16878;SDS011;8556;52.218;9.884;2022-12-29T05:05:15;0.50;;;0.50;;
16878;SDS011;8556;52.218;9.884;2022-12-29T05:07:42;2.03;;;1.10;;
16878;SDS011;8556;52.218;9.884;2022-12-29T05:10:09;0.53;;;0.53;;
16878;SDS011;8556;52.218;9.884;2022-12-29T05:12:36;1.30;;;0.67;;
16878;SDS011;8556;52.218;9.884;2022-12-29T05:15:06;0.57;;;0.40;;
16878;SDS011;8556;52.218;9.884;2022-12-29T05:17:34;0.60;;;0.60;;
16878;SDS011;8556;52.218;9.884;2022-12-29T05:20:02;0.77;;;0.70;;
16878;SDS011;8556;52.218;9.884;2022-12-29T05:22:30;0.80;;;0.80;;
16878;SDS011;8556;52.218;9.884;2022-12-29T05:24:56;0.47;;;0.47;;
16878;SDS011;8556;52.218;9.884;2022-12-29T05:27:23;1.33;;;0.60;;
16878;SDS011;8556;52.218;9.884;2022-12-29T05:29:50;0.70;;;0.63;;
16878;SDS011;8556;52.218;9.884;2022-12-29T05:32:18;0.67;;;0.33;;
16878;SDS011;8556;52.218;9.884;2022-12-29T05:34:45;0.87;;;0.60;;
16878;SDS011;8556;52.218;9.884;2022-12-29T05:37:12;0.50;;;0.50;;
16878;SDS011;8556;52.218;9.884;2022-12-29T05:39:39;2.67;;;0.63;;
16878;SDS011;8556;52.218;9.884;2022-12-29T05:42:05;0.70;;;0.53;;
16878;SDS011;8556;52.218;9.884;2022-12-29T05:44:32;0.67;;;0.67;;
16878;SDS011;8556;52.218;9.884;2022-12-29T05:46:59;0.40;;;0.40;;
16878;SDS011;8556;52.218;9.884;2022-12-29T05:49:27;0.80;;;0.40;;
16878;SDS011;8556;52.218;9.884;2022-12-29T05:51:54;0.57;;;0.57;;
16878;SDS011;8556;52.218;9.884;2022-12-29T05:54:21;0.40;;;0.40;;
16878;SDS011;8556;52.218;9.884;2022-12-29T05:56:48;0.90;;;0.57;;
16878;SDS011;8556;52.218;9.884;2022-12-29T05:59:14;1.70;;;0.67;;
16878;SDS011;8556;52.218;9.884;2022-12-29T06:01:41;0.40;;;0.40;;
16878;SDS011;8556;52.218;9.884;2022-12-29T06:04:08;0.60;;;0.60;;
16878;SDS011;8556;52.218;9.884;2022-12-29T06:06:36;1.17;;;0.63;;
16878;SDS011;8556;52.218;9.884;2022-12-29T06:09:03;1.13;;;0.70;;
16878;SDS011;8556;52.218;9.884;2022-12-29T06:11:31;2.57;;;0.60;;
16878;SDS011;8556;52.218;9.884;2022-12-29T06:13:58;0.50;;;0.50;;
16878;SDS011;8556;52.218;9.884;2022-12-29T06:16:24;0.70;;;0.70;;
16878;SDS011;8556;52.218;9.884;2022-12-29T06:18:51;0.87;;;0.87;;
16878;SDS011;8556;52.218;9.884;2022-12-29T06:21:18;1.17;;;0.60;;
16878;SDS011;8556;52.218;9.884;2022-12-29T06:23:46;1.07;;;0.63;;
16878;SDS011;8556;52.218;9.884;2022-12-29T06:26:13;0.60;;;0.60;;
16878;SDS011;8556;52.218;9.884;2022-12-29T06:28:40;0.60;;;0.60;;
16878;SDS011;8556;52.218;9.884;2022-12-29T06:31:08;0.50;;;0.50;;
16878;SDS011;8556;52.218;9.884;2022-12-29T06:33:35;0.50;;;0.50;;
16878;SDS011;8556;52.218;9.884;2022-12-29T06:36:02;1.80;;;0.60;;
16878;SDS011;8556;52.218;9.884;2022-12-29T06:38:29;0.40;;;0.40;;
16878;SDS011;8556;52.218;9.884;2022-12-29T06:40:57;0.40;;;0.40;;
16878;SDS011;8556;52.218;9.884;2022-12-29T06:43:24;0.23;;;0.23;;
16878;SDS011;8556;52.218;9.884;2022-12-29T06:45:51;0.50;;;0.50;;
16878;SDS011;8556;52.218;9.884;2022-12-29T06:48:17;0.40;;;0.40;;
16878;SDS011;8556;52.218;9.884;2022-12-29T06:50:44;0.80;;;0.40;;
16878;SDS011;8556;52.218;9.884;2022-12-29T06:53:11;0.30;;;0.30;;
16878;SDS011;8556;52.218;9.884;2022-12-29T06:55:38;0.20;;;0.20;;
16878;SDS011;8556;52.218;9.884;2022-12-29T06:58:06;0.20;;;0.20;;
16878;SDS011;8556;52.218;9.884;2022-12-29T07:00:33;0.40;;;0.40;;
16878;SDS011;8556;52.218;9.884;2022-12-29T07:03:00;0.60;;;0.60;;
16878;SDS011;8556;52.218;9.884;2022-12-29T07:05:26;0.47;;;0.47;;
16878;SDS011;8556;52.218;9.884;2022-12-29T07:07:53;0.60;;;0.43;;
16878;SDS011;8556;52.218;9.884;2022-12-29T07:10:20;0.30;;;0.20;;
16878;SDS011;8556;52.218;9.884;2022-12-29T07:12:48;0.40;;;0.40;;
16878;SDS011;8556;52.218;9.884;2022-12-29T07:15:16;0.27;;;0.27;;
16878;SDS011;8556;52.218;9.884;2022-12-29T07:17:43;0.40;;;0.20;;
16878;SDS011;8556;52.218;9.884;2022-12-29T07:20:10;0.37;;;0.20;;
16878;SDS011;8556;52.218;9.884;2022-12-29T07:22:37;0.30;;;0.30;;
16878;SDS011;8556;52.218;9.884;2022-12-29T07:25:04;0.20;;;0.20;;
16878;SDS011;8556;52.218;9.884;2022-12-29T07:27:31;0.30;;;0.20;;
16878;SDS011;8556;52.218;9.884;2022-12-29T07:29:58;0.40;;;0.40;;
16878;SDS011;8556;52.218;9.884;2022-12-29T07:32:26;0.50;;;0.40;;
16878;SDS011;8556;52.218;9.884;2022-12-29T07:34:53;1.27;;;0.37;;
16878;SDS011;8556;52.218;9.884;2022-12-29T07:37:20;1.13;;;0.73;;
16878;SDS011;8556;52.218;9.884;2022-12-29T07:39:46;0.60;;;0.40;;
16878;SDS011;8556;52.218;9.884;2022-12-29T07:42:13;1.23;;;0.60;;
16878;SDS011;8556;52.218;9.884;2022-12-29T07:44:40;0.80;;;0.27;;
16878;SDS011;8556;52.218;9.884;2022-12-29T07:47:07;1.20;;;0.47;;
16878;SDS011;8556;52.218;9.884;2022-12-29T07:49:35;1.87;;;0.60;;
16878;SDS011;8556;52.218;9.884;2022-12-29T07:52:02;1.20;;;0.50;;
16878;SDS011;8556;52.218;9.884;2022-12-29T07:54:28;0.40;;;0.40;;
16878;SDS011;8556;52.218;9.884;2022-12-29T07:56:55;0.40;;;0.40;;
16878;SDS011;8556;52.218;9.884;2022-12-29T07:59:22;1.83;;;0.60;;
16878;SDS011;8556;52.218;9.884;2022-12-29T08:01:49;0.93;;;0.50;;
16878;SDS011;8556;52.218;9.884;2022-12-29T08:04:16;1.03;;;0.67;;
16878;SDS011;8556;52.218;9.884;2022-12-29T08:06:44;2.33;;;0.40;;
16878;SDS011;8556;52.218;9.884;2022-12-29T08:09:11;1.40;;;0.97;;
16878;SDS011;8556;52.218;9.884;2022-12-29T08:11:38;1.10;;;1.00;;
16878;SDS011;8556;52.218;9.884;2022-12-29T08:14:05;2.53;;;1.03;;
16878;SDS011;8556;52.218;9.884;2022-12-29T08:16:32;0.80;;;0.80;;
16878;SDS011;8556;52.218;9.884;2022-12-29T08:18:59;0.30;;;0.30;;
16878;SDS011;8556;52.218;9.884;2022-12-29T08:21:26;0.73;;;0.73;;
16878;SDS011;8556;52.218;9.884;2022-12-29T08:23:55;1.40;;;0.50;;
16878;SDS011;8556;52.218;9.884;2022-12-29T08:26:24;0.30;;;0.30;;
16878;SDS011;8556;52.218;9.884;2022-12-29T08:28:51;0.30;;;0.30;;
16878;SDS011;8556;52.218;9.884;2022-12-29T08:31:18;0.90;;;0.50;;
16878;SDS011;8556;52.218;9.884;2022-12-29T08:33:45;0.97;;;0.60;;
16878;SDS011;8556;52.218;9.884;2022-12-29T08:36:12;0.50;;;0.50;;
16878;SDS011;8556;52.218;9.884;2022-12-29T08:38:39;0.67;;;0.67;;
16878;SDS011;8556;52.218;9.884;2022-12-29T08:41:07;3.17;;;1.40;;
16878;SDS011;8556;52.218;9.884;2022-12-29T08:43:34;2.13;;;1.60;;
16878;SDS011;8556;52.218;9.884;2022-12-29T08:46:00;1.53;;;1.20;;
16878;SDS011;8556;52.218;9.884;2022-12-29T08:48:27;2.97;;;1.10;;
16878;SDS011;8556;52.218;9.884;2022-12-29T08:50:54;2.90;;;1.10;;
16878;SDS011;8556;52.218;9.884;2022-12-29T08:53:21;2.80;;;1.30;;
16878;SDS011;8556;52.218;9.884;2022-12-29T08:55:54;7.30;;;1.70;;
16878;SDS011;8556;52.218;9.884;2022-12-29T08:58:23;1.93;;;1.20;;
16878;SDS011;8556;52.218;9.884;2022-12-29T09:00:51;4.43;;;1.20;;
16878;SDS011;8556;52.218;9.884;2022-12-29T09:03:19;3.13;;;1.10;;
16878;SDS011;8556;52.218;9.884;2022-12-29T09:05:47;1.23;;;0.97;;
16878;SDS011;8556;52.218;9.884;2022-12-29T09:08:14;1.10;;;0.70;;
16878;SDS011;8556;52.218;9.884;2022-12-29T09:10:41;1.07;;;0.80;;
16878;SDS011;8556;52.218;9.884;2022-12-29T09:13:08;1.70;;;0.60;;
16878;SDS011;8556;52.218;9.884;2022-12-29T09:15:37;1.60;;;0.93;;
16878;SDS011;8556;52.218;9.884;2022-12-29T09:18:04;2.27;;;0.90;;
16878;SDS011;8556;52.218;9.884;2022-12-29T09:20:31;1.47;;;1.00;;
16878;SDS011;8556;52.218;9.884;2022-12-29T09:22:59;4.60;;;2.40;;
16878;SDS011;8556;52.218;9.884;2022-12-29T09:25:26;1.17;;;1.07;;
16878;SDS011;8556;52.218;9.884;2022-12-29T09:27:54;2.40;;;0.77;;
16878;SDS011;8556;52.218;9.884;2022-12-29T09:30:21;0.57;;;0.57;;
16878;SDS011;8556;52.218;9.884;2022-12-29T09:32:51;2.23;;;0.77;;
16878;SDS011;8556;52.218;9.884;2022-12-29T09:35:17;0.83;;;0.60;;
16878;SDS011;8556;52.218;9.884;2022-12-29T09:37:45;3.40;;;1.43;;
16878;SDS011;8556;52.218;9.884;2022-12-29T09:40:17;1.20;;;1.10;;
16878;SDS011;8556;52.218;9.884;2022-12-29T09:42:53;3.37;;;0.83;;
16878;SDS011;8556;52.218;9.884;2022-12-29T09:45:32;0.80;;;0.80;;
16878;SDS011;8556;52.218;9.884;2022-12-29T09:48:08;1.23;;;0.50;;
16878;SDS011;8556;52.218;9.884;2022-12-29T09:50:40;0.80;;;0.70;;
16878;SDS011;8556;52.218;9.884;2022-12-29T09:53:14;2.30;;;0.80;;
16878;SDS011;8556;52.218;9.884;2022-12-29T09:55:47;7.40;;;1.53;;
16878;SDS011;8556;52.218;9.884;2022-12-29T09:58:17;1.63;;;0.90;;
16878;SDS011;8556;52.218;9.884;2022-12-29T10:00:50;1.53;;;0.80;;
16878;SDS011;8556;52.218;9.884;2022-12-29T10:03:24;2.80;;;1.30;;
16878;SDS011;8556;52.218;9.884;2022-12-29T10:05:55;5.33;;;1.33;;
16878;SDS011;8556;52.218;9.884;2022-12-29T10:08:30;1.47;;;1.10;;
16878;SDS011;8556;52.218;9.884;2022-12-29T10:11:05;3.27;;;0.93;;
16878;SDS011;8556;52.218;9.884;2022-12-29T10:13:43;1.80;;;1.00;;
16878;SDS011;8556;52.218;9.884;2022-12-29T10:16:23;1.33;;;1.07;;
16878;SDS011;8556;52.218;9.884;2022-12-29T10:19:02;1.73;;;0.90;;
16878;SDS011;8556;52.218;9.884;2022-12-29T10:21:49;3.50;;;1.40;;
16878;SDS011;8556;52.218;9.884;2022-12-29T10:24:26;2.97;;;1.40;;
16878;SDS011;8556;52.218;9.884;2022-12-29T10:26:55;2.23;;;1.47;;
16878;SDS011;8556;52.218;9.884;2022-12-29T10:29:25;3.93;;;2.00;;
16878;SDS011;8556;52.218;9.884;2022-12-29T10:31:59;2.93;;;1.47;;
16878;SDS011;8556;52.218;9.884;2022-12-29T10:34:31;2.10;;;1.10;;
16878;SDS011;8556;52.218;9.884;2022-12-29T10:37:03;3.60;;;1.33;;
16878;SDS011;8556;52.218;9.884;2022-12-29T10:39:36;4.83;;;1.20;;
16878;SDS011;8556;52.218;9.884;2022-12-29T10:42:09;2.87;;;0.90;;
16878;SDS011;8556;52.218;9.884;2022-12-29T10:44:40;2.80;;;1.20;;
16878;SDS011;8556;52.218;9.884;2022-12-29T10:47:10;3.67;;;1.40;;
16878;SDS011;8556;52.218;9.884;2022-12-29T10:49:42;1.90;;;0.90;;
16878;SDS011;8556;52.218;9.884;2022-12-29T10:52:13;3.40;;;0.87;;
16878;SDS011;8556;52.218;9.884;2022-12-29T10:54:43;2.83;;;0.90;;
16878;SDS011;8556;52.218;9.884;2022-12-29T10:57:15;3.50;;;1.10;;
16878;SDS011;8556;52.218;9.884;2022-12-29T10:59:48;2.93;;;1.13;;
16878;SDS011;8556;52.218;9.884;2022-12-29T11:02:38;0.80;;;0.80;;
16878;SDS011;8556;52.218;9.884;2022-12-29T11:05:28;4.33;;;1.07;;
16878;SDS011;8556;52.218;9.884;2022-12-29T11:08:02;2.33;;;1.00;;
16878;SDS011;8556;52.218;9.884;2022-12-29T11:10:35;3.37;;;1.00;;
16878;SDS011;8556;52.218;9.884;2022-12-29T11:13:10;2.77;;;1.00;;
16878;SDS011;8556;52.218;9.884;2022-12-29T11:15:39;2.00;;;0.90;;
16878;SDS011;8556;52.218;9.884;2022-12-29T11:18:17;2.13;;;0.80;;
16878;SDS011;8556;52.218;9.884;2022-12-29T11:20:48;2.40;;;1.00;;
16878;SDS011;8556;52.218;9.884;2022-12-29T11:23:26;2.93;;;1.03;;
16878;SDS011;8556;52.218;9.884;2022-12-29T11:26:07;3.60;;;0.87;;
16878;SDS011;8556;52.218;9.884;2022-12-29T11:28:43;1.57;;;0.70;;
16878;SDS011;8556;52.218;9.884;2022-12-29T11:31:12;4.20;;;0.90;;
16878;SDS011;8556;52.218;9.884;2022-12-29T11:33:42;6.23;;;1.73;;
16878;SDS011;8556;52.218;9.884;2022-12-29T11:36:12;5.80;;;1.80;;
16878;SDS011;8556;52.218;9.884;2022-12-29T11:38:45;9.03;;;2.30;;
16878;SDS011;8556;52.218;9.884;2022-12-29T11:41:18;2.17;;;1.33;;
16878;SDS011;8556;52.218;9.884;2022-12-29T11:43:47;4.07;;;1.40;;
16878;SDS011;8556;52.218;9.884;2022-12-29T11:46:14;2.93;;;0.90;;
16878;SDS011;8556;52.218;9.884;2022-12-29T11:48:45;3.67;;;1.30;;
16878;SDS011;8556;52.218;9.884;2022-12-29T11:51:14;5.17;;;1.20;;
16878;SDS011;8556;52.218;9.884;2022-12-29T11:53:50;2.80;;;1.20;;
16878;SDS011;8556;52.218;9.884;2022-12-29T11:56:20;4.43;;;1.00;;
16878;SDS011;8556;52.218;9.884;2022-12-29T11:58:57;6.90;;;1.47;;
16878;SDS011;8556;52.218;9.884;2022-12-29T12:01:25;4.93;;;0.90;;
16878;SDS011;8556;52.218;9.884;2022-12-29T12:04:01;2.87;;;0.73;;
16878;SDS011;8556;52.218;9.884;2022-12-29T12:06:32;3.53;;;1.10;;
16878;SDS011;8556;52.218;9.884;2022-12-29T12:09:02;4.53;;;1.00;;
16878;SDS011;8556;52.218;9.884;2022-12-29T12:11:34;3.07;;;1.00;;
16878;SDS011;8556;52.218;9.884;2022-12-29T12:14:04;4.87;;;1.07;;
16878;SDS011;8556;52.218;9.884;2022-12-29T12:16:39;6.17;;;1.10;;
16878;SDS011;8556;52.218;9.884;2022-12-29T12:19:10;4.80;;;1.00;;
16878;SDS011;8556;52.218;9.884;2022-12-29T12:21:43;2.77;;;0.87;;
16878;SDS011;8556;52.218;9.884;2022-12-29T12:24:23;2.33;;;1.00;;
16878;SDS011;8556;52.218;9.884;2022-12-29T12:27:03;3.03;;;1.17;;
16878;SDS011;8556;52.218;9.884;2022-12-29T12:29:41;3.53;;;0.93;;
16878;SDS011;8556;52.218;9.884;2022-12-29T12:32:14;3.20;;;1.20;;
16878;SDS011;8556;52.218;9.884;2022-12-29T12:34:45;3.27;;;1.37;;
16878;SDS011;8556;52.218;9.884;2022-12-29T12:40:11;4.17;;;1.43;;
16878;SDS011;8556;52.218;9.884;2022-12-29T12:42:52;3.37;;;1.60;;
16878;SDS011;8556;52.218;9.884;2022-12-29T12:45:37;5.47;;;1.97;;
16878;SDS011;8556;52.218;9.884;2022-12-29T12:48:17;4.23;;;1.77;;
16878;SDS011;8556;52.218;9.884;2022-12-29T12:50:55;3.90;;;1.37;;
16878;SDS011;8556;52.218;9.884;2022-12-29T12:53:38;5.40;;;2.00;;
16878;SDS011;8556;52.218;9.884;2022-12-29T12:59:26;1.30;;;1.13;;
16878;SDS011;8556;52.218;9.884;2022-12-29T13:02:08;4.17;;;1.30;;
16878;SDS011;8556;52.218;9.884;2022-12-29T13:04:48;2.77;;;1.50;;
16878;SDS011;8556;52.218;9.884;2022-12-29T13:07:26;2.80;;;1.50;;
16878;SDS011;8556;52.218;9.884;2022-12-29T13:10:15;1.50;;;1.37;;
16878;SDS011;8556;52.218;9.884;2022-12-29T13:12:55;2.67;;;1.40;;
16878;SDS011;8556;52.218;9.884;2022-12-29T13:15:39;5.90;;;2.27;;
16878;SDS011;8556;52.218;9.884;2022-12-29T13:18:15;4.17;;;1.37;;
16878;SDS011;8556;52.218;9.884;2022-12-29T13:20:50;5.33;;;2.30;;
16878;SDS011;8556;52.218;9.884;2022-12-29T13:23:24;4.23;;;1.70;;
16878;SDS011;8556;52.218;9.884;2022-12-29T13:25:59;5.83;;;1.53;;
16878;SDS011;8556;52.218;9.884;2022-12-29T13:28:34;3.50;;;1.40;;
16878;SDS011;8556;52.218;9.884;2022-12-29T13:31:12;8.10;;;2.13;;
16878;SDS011;8556;52.218;9.884;2022-12-29T13:33:46;3.43;;;1.50;;
16878;SDS011;8556;52.218;9.884;2022-12-29T13:36:21;2.57;;;1.33;;
16878;SDS011;8556;52.218;9.884;2022-12-29T13:38:53;4.27;;;1.40;;
16878;SDS011;8556;52.218;9.884;2022-12-29T13:41:32;3.20;;;1.43;;
16878;SDS011;8556;52.218;9.884;2022-12-29T13:44:02;7.73;;;1.93;;
16878;SDS011;8556;52.218;9.884;2022-12-29T13:46:33;2.90;;;1.30;;
16878;SDS011;8556;52.218;9.884;2022-12-29T13:49:04;1.90;;;1.30;;
16878;SDS011;8556;52.218;9.884;2022-12-29T13:51:34;5.73;;;1.40;;
16878;SDS011;8556;52.218;9.884;2022-12-29T13:54:09;3.80;;;1.50;;
16878;SDS011;8556;52.218;9.884;2022-12-29T13:56:48;4.10;;;1.63;;
16878;SDS011;8556;52.218;9.884;2022-12-29T13:59:20;3.97;;;1.60;;
16878;SDS011;8556;52.218;9.884;2022-12-29T14:01:54;4.67;;;1.73;;
16878;SDS011;8556;52.218;9.884;2022-12-29T14:04:25;1.57;;;1.47;;
16878;SDS011;8556;52.218;9.884;2022-12-29T14:06:58;2.60;;;1.60;;
16878;SDS011;8556;52.218;9.884;2022-12-29T14:09:41;5.13;;;2.20;;
16878;SDS011;8556;52.218;9.884;2022-12-29T14:15:02;5.03;;;2.33;;
16878;SDS011;8556;52.218;9.884;2022-12-29T14:17:41;3.60;;;1.97;;
16878;SDS011;8556;52.218;9.884;2022-12-29T14:20:16;5.83;;;1.83;;
16878;SDS011;8556;52.218;9.884;2022-12-29T14:22:55;2.40;;;1.40;;
16878;SDS011;8556;52.218;9.884;2022-12-29T14:28:35;2.73;;;1.63;;
16878;SDS011;8556;52.218;9.884;2022-12-29T14:31:03;3.27;;;1.63;;
16878;SDS011;8556;52.218;9.884;2022-12-29T14:33:32;2.37;;;1.50;;
16878;SDS011;8556;52.218;9.884;2022-12-29T14:38:45;4.07;;;1.70;;
16878;SDS011;8556;52.218;9.884;2022-12-29T14:41:17;2.10;;;1.27;;
16878;SDS011;8556;52.218;9.884;2022-12-29T14:43:52;4.53;;;1.30;;
16878;SDS011;8556;52.218;9.884;2022-12-29T14:46:21;4.70;;;1.67;;
16878;SDS011;8556;52.218;9.884;2022-12-29T14:48:52;3.37;;;1.50;;
16878;SDS011;8556;52.218;9.884;2022-12-29T14:51:30;4.07;;;1.50;;
16878;SDS011;8556;52.218;9.884;2022-12-29T14:57:02;1.77;;;1.20;;
16878;SDS011;8556;52.218;9.884;2022-12-29T14:59:32;3.07;;;1.47;;
16878;SDS011;8556;52.218;9.884;2022-12-29T15:02:03;5.63;;;1.93;;
16878;SDS011;8556;52.218;9.884;2022-12-29T15:04:39;4.53;;;1.23;;
16878;SDS011;8556;52.218;9.884;2022-12-29T15:07:06;4.23;;;1.50;;
16878;SDS011;8556;52.218;9.884;2022-12-29T15:09:35;4.63;;;1.50;;
16878;SDS011;8556;52.218;9.884;2022-12-29T15:12:06;2.93;;;1.40;;
16878;SDS011;8556;52.218;9.884;2022-12-29T15:14:50;3.53;;;1.87;;
16878;SDS011;8556;52.218;9.884;2022-12-29T15:17:25;2.47;;;1.63;;
16878;SDS011;8556;52.218;9.884;2022-12-29T15:19:53;2.50;;;1.40;;
16878;SDS011;8556;52.218;9.884;2022-12-29T15:22:22;5.43;;;1.50;;
16878;SDS011;8556;52.218;9.884;2022-12-29T15:24:50;3.83;;;1.67;;
16878;SDS011;8556;52.218;9.884;2022-12-29T15:27:20;6.10;;;2.03;;
16878;SDS011;8556;52.218;9.884;2022-12-29T15:29:56;5.73;;;1.83;;
16878;SDS011;8556;52.218;9.884;2022-12-29T15:32:24;3.13;;;1.60;;
16878;SDS011;8556;52.218;9.884;2022-12-29T15:34:53;4.67;;;1.43;;
16878;SDS011;8556;52.218;9.884;2022-12-29T15:37:22;5.03;;;1.53;;
16878;SDS011;8556;52.218;9.884;2022-12-29T15:39:50;5.00;;;1.50;;
16878;SDS011;8556;52.218;9.884;2022-12-29T15:42:21;3.87;;;1.10;;
16878;SDS011;8556;52.218;9.884;2022-12-29T15:45:00;2.33;;;1.13;;
16878;SDS011;8556;52.218;9.884;2022-12-29T15:47:30;3.83;;;1.40;;